Buoy 46930

sailwx.info

Track history (hours):
 
Tides and Currents Weather Stations Pressure Air Temp Water Temp Dewpoint Dewpoint Depression Visibility Wind Speed Wind Dir Waves Ship Positions

Drifting buoy 46930

Last reported at 2015-Jan-25 18:00 UTC. Time now 2015-Jan-25 20:23 UTC.
Position N 19°59' W 119°15'.

Water temperature 23.6 ° C

Date/timePositionNaut miles runAvg speedWind from/ knotsBaromVisibWave heightAir tempDewpointWater temp
2015-Jan-25 18:00N 19°59' W 119°15'0 0.2 23.6
2015-Jan-25 17:00N 19°59' W 119°15'1 1.2 23.6
2015-Jan-25 16:00N 19°59' W 119°13'0 0.0 23.6
2015-Jan-25 14:00N 19°59' W 119°13'0 0.4 23.6
2015-Jan-25 13:00N 19°59' W 119°14'1 0.6 23.6
2015-Jan-25 12:00N 19°59' W 119°13'0 0.1 23.6
2015-Jan-25 11:00N 19°59' W 119°13'0 0.1 23.6
2015-Jan-25 10:00N 19°59' W 119°13'2 0.4 23.6
2015-Jan-25 06:00N 19°59' W 119°12'1 0.2 23.7
2015-Jan-25 03:00N 19°59' W 119°11'0 0.2 23.7
2015-Jan-25 01:00N 19°60' W 119°11'0 0.0 23.7
2015-Jan-25 00:00N 19°60' W 119°11'1 0.5 23.7
2015-Jan-24 23:00N 19°59' W 119°12'0 0.2 23.8
2015-Jan-24 20:00N 19°60' W 119°12'2 0.5 23.7
2015-Jan-24 17:00N 19°58' W 119°11'1 0.7 23.7
2015-Jan-24 16:00N 19°59' W 119°11'2 0.8 23.7
2015-Jan-24 14:00N 19°57' W 119°11'1 0.5 23.7
2015-Jan-24 12:00N 19°56' W 119°10'1 0.2 23.7
2015-Jan-24 06:00N 19°57' W 119°09'0 0.4 23.8
2015-Jan-24 05:00N 19°56' W 119°09'1 0.5 23.8
2015-Jan-24 04:00N 19°56' W 119°08'0 0.3 23.8
2015-Jan-24 03:00N 19°57' W 119°08'1 0.2 23.8
2015-Jan-24 00:00N 19°56' W 119°07'0 0.0 23.8
2015-Jan-23 17:00N 19°56' W 119°07'1 0.4 23.8
2015-Jan-23 14:00N 19°55' W 119°07'0 0.3 23.8
2015-Jan-23 13:00N 19°55' W 119°06'0 0.0 23.9
2015-Jan-23 11:00N 19°55' W 119°06'0 0.1 23.8
2015-Jan-23 06:00N 19°55' W 119°06'0 0.3 23.8
2015-Jan-23 05:00N 19°55' W 119°06'1 0.8 23.8
2015-Jan-23 04:00N 19°54' W 119°05'1 0.6 23.8
2015-Jan-23 03:00N 19°54' W 119°05'0 0.0 23.8
2015-Jan-23 02:00N 19°54' W 119°05'0 0.2 23.8
2015-Jan-23 00:00N 19°54' W 119°05'1 1.2 23.8
2015-Jan-22 23:00N 19°55' W 119°04'1 0.6 23.8
2015-Jan-22 21:00N 19°55' W 119°03'0 0.2 23.8
2015-Jan-22 18:00N 19°56' W 119°03'1 0.8 23.8
2015-Jan-22 17:00N 19°57' W 119°03'0 0.0 23.8
2015-Jan-22 16:00N 19°57' W 119°03'1 0.7 23.8
2015-Jan-22 14:00N 19°58' W 119°02'0 0.2 23.8
2015-Jan-22 12:00N 19°58' W 119°02'0 0.4 23.8
2015-Jan-22 11:00N 19°58' W 119°02'2 0.4 23.8
2015-Jan-22 06:00N 19°59' W 119°04'0 0.5 23.8
2015-Jan-22 05:00N 19°59' W 119°04'0 0.2 23.8
2015-Jan-22 04:00N 19°59' W 119°04'1 0.3 23.9
2015-Jan-22 02:00N 19°58' W 119°04'1 0.4 23.9
2015-Jan-21 23:00N 19°58' W 119°05'0 0.0 24.0
2015-Jan-21 21:00N 19°58' W 119°05'1 0.4 24.1
2015-Jan-21 18:00N 19°58' W 119°04'1 0.3 24.0
2015-Jan-21 15:00N 19°58' W 119°03'2 0.5 23.8
2015-Jan-21 11:00N 19°59' W 119°02'3 0.5 23.9
2015-Jan-21 06:00N 20°02' W 119°02'0 0.5 23.9
2015-Jan-21 05:00N 20°02' W 119°03'1 0.3 23.9
2015-Jan-21 03:00N 20°03' W 119°03'1 0.7 23.9
2015-Jan-21 01:00N 20°03' W 119°04'0 0.0 23.9
2015-Jan-20 23:00N 20°03' W 119°05'0 0.1 24.0
2015-Jan-20 22:00N 20°03' W 119°04'1 1.2 23.9
2015-Jan-20 21:00N 20°03' W 119°06'0 0.0 23.9
2015-Jan-20 20:00N 20°03' W 119°06'1 0.3 23.9
2015-Jan-20 18:00N 20°03' W 119°06'2 0.4 23.8
2015-Jan-20 13:00N 20°01' W 119°07'0 0.3 23.8
2015-Jan-20 12:00N 20°01' W 119°06'1 0.1 23.8
2015-Jan-20 08:00N 20°01' W 119°06'0 0.2 23.8
2015-Jan-20 06:00N 20°01' W 119°06'0 0.0 23.9
2015-Jan-20 05:00N 20°01' W 119°06'0 0.4 23.9
2015-Jan-20 04:00N 20°01' W 119°06'1 0.6 23.9
2015-Jan-20 03:00N 20°02' W 119°06'1 0.9 23.9
2015-Jan-20 02:00N 20°01' W 119°05'1 0.7 23.9
2015-Jan-20 01:00N 20°02' W 119°04'1 0.9 23.9
2015-Jan-20 00:00N 20°02' W 119°05'0 0.2 23.9
2015-Jan-19 23:00N 20°02' W 119°05'1 0.3 23.9
2015-Jan-19 21:00N 20°03' W 119°05'1 0.8 23.9
2015-Jan-19 20:00N 20°03' W 119°05'0 0.0 23.8
2015-Jan-19 19:00N 20°03' W 119°05'1 0.5 23.8
2015-Jan-19 18:00N 20°03' W 119°05'1 1.2 23.8
2015-Jan-19 17:00N 20°04' W 119°06'1 0.7 23.7
2015-Jan-19 15:00N 20°03' W 119°07'1 1.0 23.7
2015-Jan-19 14:00N 20°04' W 119°08'1 0.3 23.7
2015-Jan-19 12:00N 20°04' W 119°08'1 0.3 23.7
2015-Jan-19 09:00N 20°03' W 119°09'2 0.4 23.6
2015-Jan-19 05:00N 20°02' W 119°10'0 0.4 23.6
2015-Jan-19 04:00N 20°02' W 119°10'0 0.1 23.6
2015-Jan-19 03:00N 20°02' W 119°10'0 0.1 23.6
2015-Jan-19 02:00N 20°02' W 119°10'1 0.5 23.6
2015-Jan-19 01:00N 20°01' W 119°10'0 0.2 23.7
2015-Jan-19 00:00N 20°01' W 119°10'0 0.4 23.7
2015-Jan-18 23:00N 20°02' W 119°10'0 0.0 23.7
2015-Jan-18 22:00N 20°02' W 119°10'0 0.4 23.7
2015-Jan-18 21:00N 20°01' W 119°10'0 0.2 23.7
2015-Jan-18 20:00N 20°01' W 119°10'1 0.4 23.7
2015-Jan-18 18:00N 20°01' W 119°09'0 0.2 23.6
2015-Jan-18 17:00N 20°01' W 119°09'1 0.8 23.5
2015-Jan-18 16:00N 20°02' W 119°09'1 0.9 23.5
2015-Jan-18 15:00N 20°02' W 119°09'0 0.3 23.5
2015-Jan-18 14:00N 20°02' W 119°08'1 0.3 23.5
2015-Jan-18 12:00N 20°02' W 119°09'1 1.1 23.6
2015-Jan-18 11:00N 20°03' W 119°09'4 0.8 23.6
2015-Jan-18 06:00N 20°05' W 119°13'1 0.5 23.6
2015-Jan-18 04:00N 20°05' W 119°14'1 0.5 23.5
2015-Jan-18 03:00N 20°06' W 119°14'2 1.6 23.5
2015-Jan-18 02:00N 20°05' W 119°16'1 0.7 23.5
2015-Jan-18 00:00N 20°04' W 119°17'1 0.8 23.5
2015-Jan-17 23:00N 20°04' W 119°18'0 0.0 23.5
2015-Jan-17 22:00N 20°04' W 119°18'2 0.9 23.5
2015-Jan-17 20:00N 20°03' W 119°19'1 0.5 23.4
2015-Jan-17 18:00N 20°02' W 119°20'1 0.4 23.2
2015-Jan-17 16:00N 20°01' W 119°19'2 0.9 23.1
2015-Jan-17 14:00N 19°59' W 119°19'1 0.8 23.1
2015-Jan-17 13:00N 19°59' W 119°18'0 0.1 23.1
2015-Jan-17 12:00N 19°59' W 119°18'2 0.3 23.1
2015-Jan-17 05:00N 19°60' W 119°16'1 1.1 23.1
2015-Jan-17 04:00N 20°01' W 119°16'0 0.0 23.1
2015-Jan-17 03:00N 20°01' W 119°16'1 0.4 23.1
2015-Jan-17 01:00N 20°00' W 119°16'1 0.7 23.0
2015-Jan-17 00:00N 19°60' W 119°16'0 0.1 23.0
2015-Jan-16 22:00N 19°60' W 119°16'0 0.4 23.0
2015-Jan-16 21:00N 20°00' W 119°16'0 0.1 23.0
2015-Jan-16 20:00N 20°00' W 119°16'0 0.1 23.0
2015-Jan-16 18:00N 20°00' W 119°16'1 0.5 22.9
2015-Jan-16 16:00N 20°00' W 119°15'0 0.0 22.8
2015-Jan-16 15:00N 20°00' W 119°15'0 0.0 22.8
2015-Jan-16 14:00N 20°00' W 119°15'0 0.1 22.8
2015-Jan-16 12:00N 20°00' W 119°15'0 0.1 22.8
2015-Jan-16 11:00N 20°00' W 119°15'0 0.1 22.8
2015-Jan-16 10:00N 20°00' W 119°15'1 0.1 22.8
2015-Jan-16 06:00N 20°01' W 119°15'0 0.1 22.7
2015-Jan-16 05:00N 20°01' W 119°15'0 0.3 22.7
2015-Jan-16 04:00N 20°01' W 119°14'0 0.2 22.7
2015-Jan-16 02:00N 20°00' W 119°14'0 0.1 22.7
2015-Jan-16 00:00N 20°01' W 119°15'0 0.2 22.7
2015-Jan-15 22:00N 20°01' W 119°14'0 0.1 22.7
2015-Jan-15 20:00N 20°01' W 119°14'1 0.3 22.7
2015-Jan-15 18:00N 20°01' W 119°15'   22.7
Track history (hours):
 
Tides and Currents Weather Stations Pressure Air Temp Water Temp Dewpoint Dewpoint Depression Visibility Wind Speed Wind Dir Waves Ship Positions

Drifting buoy 46930

Last reported at 2015-Jan-25 18:00 UTC. Time now 2015-Jan-25 20:23 UTC.
Position N 19°59' W 119°15'.

Water temperature 23.6 ° C

Date/timePositionNaut miles runAvg speedWind from/ knotsBaromVisibWave heightAir tempDewpointWater temp
2015-Jan-25 18:00N 19°59' W 119°15'0 0.2 23.6
2015-Jan-25 17:00N 19°59' W 119°15'1 1.2 23.6
2015-Jan-25 16:00N 19°59' W 119°13'0 0.0 23.6
2015-Jan-25 14:00N 19°59' W 119°13'0 0.4 23.6
2015-Jan-25 13:00N 19°59' W 119°14'1 0.6 23.6
2015-Jan-25 12:00N 19°59' W 119°13'0 0.1 23.6
2015-Jan-25 11:00N 19°59' W 119°13'0 0.1 23.6
2015-Jan-25 10:00N 19°59' W 119°13'2 0.4 23.6
2015-Jan-25 06:00N 19°59' W 119°12'1 0.2 23.7
2015-Jan-25 03:00N 19°59' W 119°11'0 0.2 23.7
2015-Jan-25 01:00N 19°60' W 119°11'0 0.0 23.7
2015-Jan-25 00:00N 19°60' W 119°11'1 0.5 23.7
2015-Jan-24 23:00N 19°59' W 119°12'0 0.2 23.8
2015-Jan-24 20:00N 19°60' W 119°12'2 0.5 23.7
2015-Jan-24 17:00N 19°58' W 119°11'1 0.7 23.7
2015-Jan-24 16:00N 19°59' W 119°11'2 0.8 23.7
2015-Jan-24 14:00N 19°57' W 119°11'1 0.5 23.7
2015-Jan-24 12:00N 19°56' W 119°10'1 0.2 23.7
2015-Jan-24 06:00N 19°57' W 119°09'0 0.4 23.8
2015-Jan-24 05:00N 19°56' W 119°09'1 0.5 23.8
2015-Jan-24 04:00N 19°56' W 119°08'0 0.3 23.8
2015-Jan-24 03:00N 19°57' W 119°08'1 0.2 23.8
2015-Jan-24 00:00N 19°56' W 119°07'0 0.0 23.8
2015-Jan-23 17:00N 19°56' W 119°07'1 0.4 23.8
2015-Jan-23 14:00N 19°55' W 119°07'0 0.3 23.8
2015-Jan-23 13:00N 19°55' W 119°06'0 0.0 23.9
2015-Jan-23 11:00N 19°55' W 119°06'0 0.1 23.8
2015-Jan-23 06:00N 19°55' W 119°06'0 0.3 23.8
2015-Jan-23 05:00N 19°55' W 119°06'1 0.8 23.8
2015-Jan-23 04:00N 19°54' W 119°05'1 0.6 23.8
2015-Jan-23 03:00N 19°54' W 119°05'0 0.0 23.8
2015-Jan-23 02:00N 19°54' W 119°05'0 0.2 23.8
2015-Jan-23 00:00N 19°54' W 119°05'1 1.2 23.8
2015-Jan-22 23:00N 19°55' W 119°04'1 0.6 23.8
2015-Jan-22 21:00N 19°55' W 119°03'0 0.2 23.8
2015-Jan-22 18:00N 19°56' W 119°03'1 0.8 23.8
2015-Jan-22 17:00N 19°57' W 119°03'0 0.0 23.8
2015-Jan-22 16:00N 19°57' W 119°03'1 0.7 23.8
2015-Jan-22 14:00N 19°58' W 119°02'0 0.2 23.8
2015-Jan-22 12:00N 19°58' W 119°02'0 0.4 23.8
2015-Jan-22 11:00N 19°58' W 119°02'2 0.4 23.8
2015-Jan-22 06:00N 19°59' W 119°04'0 0.5 23.8
2015-Jan-22 05:00N 19°59' W 119°04'0 0.2 23.8
2015-Jan-22 04:00N 19°59' W 119°04'1 0.3 23.9
2015-Jan-22 02:00N 19°58' W 119°04'1 0.4 23.9
2015-Jan-21 23:00N 19°58' W 119°05'0 0.0 24.0
2015-Jan-21 21:00N 19°58' W 119°05'1 0.4 24.1
2015-Jan-21 18:00N 19°58' W 119°04'1 0.3 24.0
2015-Jan-21 15:00N 19°58' W 119°03'2 0.5 23.8
2015-Jan-21 11:00N 19°59' W 119°02'3 0.5 23.9
2015-Jan-21 06:00N 20°02' W 119°02'0 0.5 23.9
2015-Jan-21 05:00N 20°02' W 119°03'1 0.3 23.9
2015-Jan-21 03:00N 20°03' W 119°03'1 0.7 23.9
2015-Jan-21 01:00N 20°03' W 119°04'0 0.0 23.9
2015-Jan-20 23:00N 20°03' W 119°05'0 0.1 24.0
2015-Jan-20 22:00N 20°03' W 119°04'1 1.2 23.9
2015-Jan-20 21:00N 20°03' W 119°06'0 0.0 23.9
2015-Jan-20 20:00N 20°03' W 119°06'1 0.3 23.9
2015-Jan-20 18:00N 20°03' W 119°06'2 0.4 23.8
2015-Jan-20 13:00N 20°01' W 119°07'0 0.3 23.8
2015-Jan-20 12:00N 20°01' W 119°06'1 0.1 23.8
2015-Jan-20 08:00N 20°01' W 119°06'0 0.2 23.8
2015-Jan-20 06:00N 20°01' W 119°06'0 0.0 23.9
2015-Jan-20 05:00N 20°01' W 119°06'0 0.4 23.9
2015-Jan-20 04:00N 20°01' W 119°06'1 0.6 23.9
2015-Jan-20 03:00N 20°02' W 119°06'1 0.9 23.9
2015-Jan-20 02:00N 20°01' W 119°05'1 0.7 23.9
2015-Jan-20 01:00N 20°02' W 119°04'1 0.9 23.9
2015-Jan-20 00:00N 20°02' W 119°05'0 0.2 23.9
2015-Jan-19 23:00N 20°02' W 119°05'1 0.3 23.9
2015-Jan-19 21:00N 20°03' W 119°05'1 0.8 23.9
2015-Jan-19 20:00N 20°03' W 119°05'0 0.0 23.8
2015-Jan-19 19:00N 20°03' W 119°05'1 0.5 23.8
2015-Jan-19 18:00N 20°03' W 119°05'1 1.2 23.8
2015-Jan-19 17:00N 20°04' W 119°06'1 0.7 23.7
2015-Jan-19 15:00N 20°03' W 119°07'1 1.0 23.7
2015-Jan-19 14:00N 20°04' W 119°08'1 0.3 23.7
2015-Jan-19 12:00N 20°04' W 119°08'1 0.3 23.7
2015-Jan-19 09:00N 20°03' W 119°09'2 0.4 23.6
2015-Jan-19 05:00N 20°02' W 119°10'0 0.4 23.6
2015-Jan-19 04:00N 20°02' W 119°10'0 0.1 23.6
2015-Jan-19 03:00N 20°02' W 119°10'0 0.1 23.6
2015-Jan-19 02:00N 20°02' W 119°10'1 0.5 23.6
2015-Jan-19 01:00N 20°01' W 119°10'0 0.2 23.7
2015-Jan-19 00:00N 20°01' W 119°10'0 0.4 23.7
2015-Jan-18 23:00N 20°02' W 119°10'0 0.0 23.7
2015-Jan-18 22:00N 20°02' W 119°10'0 0.4 23.7
2015-Jan-18 21:00N 20°01' W 119°10'0 0.2 23.7
2015-Jan-18 20:00N 20°01' W 119°10'1 0.4 23.7
2015-Jan-18 18:00N 20°01' W 119°09'0 0.2 23.6
2015-Jan-18 17:00N 20°01' W 119°09'1 0.8 23.5
2015-Jan-18 16:00N 20°02' W 119°09'1 0.9 23.5
2015-Jan-18 15:00N 20°02' W 119°09'0 0.3 23.5
2015-Jan-18 14:00N 20°02' W 119°08'1 0.3 23.5
2015-Jan-18 12:00N 20°02' W 119°09'1 1.1 23.6
2015-Jan-18 11:00N 20°03' W 119°09'4 0.8 23.6
2015-Jan-18 06:00N 20°05' W 119°13'1 0.5 23.6
2015-Jan-18 04:00N 20°05' W 119°14'1 0.5 23.5
2015-Jan-18 03:00N 20°06' W 119°14'2 1.6 23.5
2015-Jan-18 02:00N 20°05' W 119°16'1 0.7 23.5
2015-Jan-18 00:00N 20°04' W 119°17'1 0.8 23.5
2015-Jan-17 23:00N 20°04' W 119°18'0 0.0 23.5
2015-Jan-17 22:00N 20°04' W 119°18'2 0.9 23.5
2015-Jan-17 20:00N 20°03' W 119°19'1 0.5 23.4
2015-Jan-17 18:00N 20°02' W 119°20'1 0.4 23.2
2015-Jan-17 16:00N 20°01' W 119°19'2 0.9 23.1
2015-Jan-17 14:00N 19°59' W 119°19'1 0.8 23.1
2015-Jan-17 13:00N 19°59' W 119°18'0 0.1 23.1
2015-Jan-17 12:00N 19°59' W 119°18'2 0.3 23.1
2015-Jan-17 05:00N 19°60' W 119°16'1 1.1 23.1
2015-Jan-17 04:00N 20°01' W 119°16'0 0.0 23.1
2015-Jan-17 03:00N 20°01' W 119°16'1 0.4 23.1
2015-Jan-17 01:00N 20°00' W 119°16'1 0.7 23.0
2015-Jan-17 00:00N 19°60' W 119°16'0 0.1 23.0
2015-Jan-16 22:00N 19°60' W 119°16'0 0.4 23.0
2015-Jan-16 21:00N 20°00' W 119°16'0 0.1 23.0
2015-Jan-16 20:00N 20°00' W 119°16'0 0.1 23.0
2015-Jan-16 18:00N 20°00' W 119°16'1 0.5 22.9
2015-Jan-16 16:00N 20°00' W 119°15'0 0.0 22.8
2015-Jan-16 15:00N 20°00' W 119°15'0 0.0 22.8
2015-Jan-16 14:00N 20°00' W 119°15'0 0.1 22.8
2015-Jan-16 12:00N 20°00' W 119°15'0 0.1 22.8
2015-Jan-16 11:00N 20°00' W 119°15'0 0.1 22.8
2015-Jan-16 10:00N 20°00' W 119°15'1 0.1 22.8
2015-Jan-16 06:00N 20°01' W 119°15'0 0.1 22.7
2015-Jan-16 05:00N 20°01' W 119°15'0 0.3 22.7
2015-Jan-16 04:00N 20°01' W 119°14'0 0.2 22.7
2015-Jan-16 02:00N 20°00' W 119°14'0 0.1 22.7
2015-Jan-16 00:00N 20°01' W 119°15'0 0.2 22.7
2015-Jan-15 22:00N 20°01' W 119°14'0 0.1 22.7
2015-Jan-15 20:00N 20°01' W 119°14'1 0.3 22.7
2015-Jan-15 18:00N 20°01' W 119°15'   22.7

Dump ship's entire track history